This is the latest recevied weather packets stored in our database for station/object IW1RID-3. If no packets are shown the sender has not sent any weather packets the latest 10 day(s).
| Time | Temp. | Humidity | Pressure | Rain* | Wind** | Luminosity | Snow |
|---|---|---|---|---|---|---|---|
| 1788063804 | 18.33° C | 71% | 1071.9 hPa | - | - | - | - |
| 1788062600 | 18.89° C | 69% | 1072 hPa | - | - | - | - |
| 1788061395 | 18.89° C | 68% | 1072 hPa | - | - | - | - |
| 1788060190 | 18.89° C | 70% | 1071.9 hPa | - | - | - | - |
| 1788058986 | 19.44° C | 66% | 1071.8 hPa | - | - | - | - |
| 1788057781 | 18.89° C | 69% | 1071.7 hPa | - | - | - | - |
| 1788056576 | 18.89° C | 69% | 1071.8 hPa | - | - | - | - |
| 1788055372 | 18.89° C | 70% | 1071.9 hPa | - | - | - | - |
| 1788054167 | 18.89° C | 70% | 1071.9 hPa | - | - | - | - |
| 1788052962 | 19.44° C | 68% | 1071.8 hPa | - | - | - | - |
| 1788051758 | 19.44° C | 71% | 1071.7 hPa | - | - | - | - |
| 1788050553 | 19.44° C | 70% | 1071.9 hPa | - | - | - | - |
| 1788049348 | 19.44° C | 71% | 1072 hPa | - | - | - | - |
| 1788048143 | 20° C | 69% | 1071.9 hPa | - | - | - | - |
| 1788046939 | 20° C | 71% | 1072.1 hPa | - | - | - | - |
| 1788045734 | 20° C | 71% | 1072 hPa | - | - | - | - |
| 1788044528 | 20.56° C | 70% | 1071.9 hPa | - | - | - | - |
| 1788043324 | 20.56° C | 70% | 1071.8 hPa | - | - | - | - |
| 1788042119 | 20.56° C | 71% | 1071.7 hPa | - | - | - | - |
| 1788040914 | 20.56° C | 71% | 1071.7 hPa | - | - | - | - |
| 1788039710 | 21.11° C | 71% | 1071.6 hPa | - | - | - | - |
| 1788038505 | 21.11° C | 70% | 1071.4 hPa | - | - | - | - |
| 1788037300 | 21.67° C | 69% | 1071.3 hPa | - | - | - | - |
| 1788036096 | 22.78° C | 66% | 1071.3 hPa | - | - | - | - |
| 1788034891 | 22.22° C | 69% | 1071.3 hPa | - | - | - | - |
* Rain since midnight (hover to see other rain measurements)
** Current wind speed in m/s (hover to see current wind gust speed)